sensor_id;sensor_type;location;lat;lon;timestamp;temperature;humidity
5868;DHT22;2960;49.142;7.768;2022-07-10T00:00:32;20.70;55.10
5868;DHT22;2960;49.142;7.768;2022-07-10T00:03:00;20.60;55.00
5868;DHT22;2960;49.142;7.768;2022-07-10T00:05:27;20.60;55.10
5868;DHT22;2960;49.142;7.768;2022-07-10T00:07:55;20.60;55.20
5868;DHT22;2960;49.142;7.768;2022-07-10T00:10:22;20.50;55.10
5868;DHT22;2960;49.142;7.768;2022-07-10T00:12:51;20.50;55.20
5868;DHT22;2960;49.142;7.768;2022-07-10T00:15:19;20.40;55.20
5868;DHT22;2960;49.142;7.768;2022-07-10T00:17:46;20.40;55.20
5868;DHT22;2960;49.142;7.768;2022-07-10T00:20:14;20.40;55.30
5868;DHT22;2960;49.142;7.768;2022-07-10T00:22:42;20.30;55.30
5868;DHT22;2960;49.142;7.768;2022-07-10T00:25:10;20.30;55.30
5868;DHT22;2960;49.142;7.768;2022-07-10T00:27:38;20.30;55.40
5868;DHT22;2960;49.142;7.768;2022-07-10T00:30:09;20.30;55.30
5868;DHT22;2960;49.142;7.768;2022-07-10T00:32:37;20.30;55.30
5868;DHT22;2960;49.142;7.768;2022-07-10T00:35:05;20.20;55.30
5868;DHT22;2960;49.142;7.768;2022-07-10T00:37:33;20.20;55.30
5868;DHT22;2960;49.142;7.768;2022-07-10T00:40:02;20.20;55.30
5868;DHT22;2960;49.142;7.768;2022-07-10T00:42:31;20.20;55.30
5868;DHT22;2960;49.142;7.768;2022-07-10T00:44:58;20.10;55.30
5868;DHT22;2960;49.142;7.768;2022-07-10T00:47:26;20.10;55.30
5868;DHT22;2960;49.142;7.768;2022-07-10T00:49:53;20.10;55.20
5868;DHT22;2960;49.142;7.768;2022-07-10T00:52:21;20.20;55.20
5868;DHT22;2960;49.142;7.768;2022-07-10T00:54:49;20.10;55.10
5868;DHT22;2960;49.142;7.768;2022-07-10T00:57:17;20.20;55.10
5868;DHT22;2960;49.142;7.768;2022-07-10T00:59:45;20.10;55.00
5868;DHT22;2960;49.142;7.768;2022-07-10T01:02:13;20.20;55.00
5868;DHT22;2960;49.142;7.768;2022-07-10T01:04:42;20.20;54.90
5868;DHT22;2960;49.142;7.768;2022-07-10T01:07:09;20.20;54.90
5868;DHT22;2960;49.142;7.768;2022-07-10T01:09:37;20.20;54.90
5868;DHT22;2960;49.142;7.768;2022-07-10T01:12:05;20.20;54.80
5868;DHT22;2960;49.142;7.768;2022-07-10T01:14:33;20.20;54.70
5868;DHT22;2960;49.142;7.768;2022-07-10T01:17:05;20.20;54.70
5868;DHT22;2960;49.142;7.768;2022-07-10T01:19:33;20.20;54.70
5868;DHT22;2960;49.142;7.768;2022-07-10T01:22:02;20.20;54.70
5868;DHT22;2960;49.142;7.768;2022-07-10T01:24:29;20.10;54.70
5868;DHT22;2960;49.142;7.768;2022-07-10T01:26:56;20.10;54.70
5868;DHT22;2960;49.142;7.768;2022-07-10T01:29:23;20.10;54.80
5868;DHT22;2960;49.142;7.768;2022-07-10T01:31:51;20.00;54.70
5868;DHT22;2960;49.142;7.768;2022-07-10T01:34:18;20.00;54.70
5868;DHT22;2960;49.142;7.768;2022-07-10T01:36:45;20.00;54.80
5868;DHT22;2960;49.142;7.768;2022-07-10T01:39:14;20.00;54.80
5868;DHT22;2960;49.142;7.768;2022-07-10T01:41:41;19.90;54.80
5868;DHT22;2960;49.142;7.768;2022-07-10T01:44:08;19.80;54.80
5868;DHT22;2960;49.142;7.768;2022-07-10T01:46:42;19.70;54.90
5868;DHT22;2960;49.142;7.768;2022-07-10T01:49:10;19.70;55.00
5868;DHT22;2960;49.142;7.768;2022-07-10T01:51:37;19.60;55.00
5868;DHT22;2960;49.142;7.768;2022-07-10T01:54:04;19.60;55.10
5868;DHT22;2960;49.142;7.768;2022-07-10T01:56:33;19.60;55.20
5868;DHT22;2960;49.142;7.768;2022-07-10T01:59:00;19.50;55.10
5868;DHT22;2960;49.142;7.768;2022-07-10T02:01:29;19.50;55.20
5868;DHT22;2960;49.142;7.768;2022-07-10T02:03:56;19.50;55.20
5868;DHT22;2960;49.142;7.768;2022-07-10T02:06:41;19.40;55.30
5868;DHT22;2960;49.142;7.768;2022-07-10T02:09:08;19.40;55.30
5868;DHT22;2960;49.142;7.768;2022-07-10T02:11:36;19.40;55.40
5868;DHT22;2960;49.142;7.768;2022-07-10T02:14:04;19.40;55.40
5868;DHT22;2960;49.142;7.768;2022-07-10T02:16:31;19.30;55.40
5868;DHT22;2960;49.142;7.768;2022-07-10T02:18:58;19.30;55.60
5868;DHT22;2960;49.142;7.768;2022-07-10T02:21:25;19.20;55.70
5868;DHT22;2960;49.142;7.768;2022-07-10T02:23:52;19.10;55.80
5868;DHT22;2960;49.142;7.768;2022-07-10T02:26:19;19.00;55.90
5868;DHT22;2960;49.142;7.768;2022-07-10T02:28:47;18.90;56.10
5868;DHT22;2960;49.142;7.768;2022-07-10T02:31:14;18.80;56.10
5868;DHT22;2960;49.142;7.768;2022-07-10T02:33:42;18.70;56.10
5868;DHT22;2960;49.142;7.768;2022-07-10T02:36:09;18.70;56.30
5868;DHT22;2960;49.142;7.768;2022-07-10T02:38:36;18.60;56.40
5868;DHT22;2960;49.142;7.768;2022-07-10T02:41:03;18.50;56.50
5868;DHT22;2960;49.142;7.768;2022-07-10T02:43:30;18.40;56.50
5868;DHT22;2960;49.142;7.768;2022-07-10T02:45:59;18.40;56.70
5868;DHT22;2960;49.142;7.768;2022-07-10T02:48:27;18.30;56.80
5868;DHT22;2960;49.142;7.768;2022-07-10T02:50:54;18.20;56.90
5868;DHT22;2960;49.142;7.768;2022-07-10T02:53:21;18.10;57.00
5868;DHT22;2960;49.142;7.768;2022-07-10T02:55:48;18.10;57.10
5868;DHT22;2960;49.142;7.768;2022-07-10T02:58:15;18.00;57.20
5868;DHT22;2960;49.142;7.768;2022-07-10T03:00:43;17.90;57.40
5868;DHT22;2960;49.142;7.768;2022-07-10T03:03:11;17.90;57.40
5868;DHT22;2960;49.142;7.768;2022-07-10T03:05:38;17.80;57.40
5868;DHT22;2960;49.142;7.768;2022-07-10T03:08:06;17.80;57.40
5868;DHT22;2960;49.142;7.768;2022-07-10T03:10:33;17.80;57.40
5868;DHT22;2960;49.142;7.768;2022-07-10T03:13:00;17.80;57.50
5868;DHT22;2960;49.142;7.768;2022-07-10T03:15:28;17.80;57.60
5868;DHT22;2960;49.142;7.768;2022-07-10T03:17:55;17.70;57.60
5868;DHT22;2960;49.142;7.768;2022-07-10T03:20:23;17.70;57.70
5868;DHT22;2960;49.142;7.768;2022-07-10T03:22:51;17.60;57.70
5868;DHT22;2960;49.142;7.768;2022-07-10T03:25:18;17.60;58.30
5868;DHT22;2960;49.142;7.768;2022-07-10T03:27:45;17.60;57.80
5868;DHT22;2960;49.142;7.768;2022-07-10T03:30:12;17.60;57.80
5868;DHT22;2960;49.142;7.768;2022-07-10T03:32:39;17.60;57.80
5868;DHT22;2960;49.142;7.768;2022-07-10T03:35:07;17.60;57.80
5868;DHT22;2960;49.142;7.768;2022-07-10T03:37:35;17.60;57.80
5868;DHT22;2960;49.142;7.768;2022-07-10T03:40:03;17.60;57.80
5868;DHT22;2960;49.142;7.768;2022-07-10T03:42:31;17.60;57.80
5868;DHT22;2960;49.142;7.768;2022-07-10T03:44:58;17.60;57.90
5868;DHT22;2960;49.142;7.768;2022-07-10T03:47:26;17.50;57.90
5868;DHT22;2960;49.142;7.768;2022-07-10T03:49:53;17.50;57.90
5868;DHT22;2960;49.142;7.768;2022-07-10T03:52:20;17.40;58.00
5868;DHT22;2960;49.142;7.768;2022-07-10T03:54:48;17.40;58.00
5868;DHT22;2960;49.142;7.768;2022-07-10T03:57:15;17.40;58.00
5868;DHT22;2960;49.142;7.768;2022-07-10T04:00:00;17.40;58.00
5868;DHT22;2960;49.142;7.768;2022-07-10T04:02:27;17.40;58.00
5868;DHT22;2960;49.142;7.768;2022-07-10T04:04:54;17.40;58.10
5868;DHT22;2960;49.142;7.768;2022-07-10T04:07:21;17.30;58.00
5868;DHT22;2960;49.142;7.768;2022-07-10T04:09:49;17.30;58.10
5868;DHT22;2960;49.142;7.768;2022-07-10T04:12:16;17.30;58.10
5868;DHT22;2960;49.142;7.768;2022-07-10T04:14:44;17.30;58.20
5868;DHT22;2960;49.142;7.768;2022-07-10T04:17:12;17.30;58.20
5868;DHT22;2960;49.142;7.768;2022-07-10T04:19:40;17.30;58.30
5868;DHT22;2960;49.142;7.768;2022-07-10T04:22:07;17.20;58.30
5868;DHT22;2960;49.142;7.768;2022-07-10T04:24:34;17.20;58.50
5868;DHT22;2960;49.142;7.768;2022-07-10T04:27:03;17.10;58.60
5868;DHT22;2960;49.142;7.768;2022-07-10T04:29:32;17.10;58.70
5868;DHT22;2960;49.142;7.768;2022-07-10T04:31:59;17.00;58.70
5868;DHT22;2960;49.142;7.768;2022-07-10T04:34:27;17.00;58.80
5868;DHT22;2960;49.142;7.768;2022-07-10T04:36:54;17.00;59.00
5868;DHT22;2960;49.142;7.768;2022-07-10T04:39:21;17.00;58.90
5868;DHT22;2960;49.142;7.768;2022-07-10T04:41:48;17.00;58.90
5868;DHT22;2960;49.142;7.768;2022-07-10T04:44:17;17.00;58.90
5868;DHT22;2960;49.142;7.768;2022-07-10T04:46:44;17.10;59.00
5868;DHT22;2960;49.142;7.768;2022-07-10T04:49:11;17.10;59.00
5868;DHT22;2960;49.142;7.768;2022-07-10T04:51:38;17.20;58.90
5868;DHT22;2960;49.142;7.768;2022-07-10T04:54:05;17.20;58.80
5868;DHT22;2960;49.142;7.768;2022-07-10T04:56:32;17.30;58.70
5868;DHT22;2960;49.142;7.768;2022-07-10T04:58:59;17.30;58.50
5868;DHT22;2960;49.142;7.768;2022-07-10T05:01:28;17.40;58.50
5868;DHT22;2960;49.142;7.768;2022-07-10T05:03:55;17.50;58.40
5868;DHT22;2960;49.142;7.768;2022-07-10T05:06:22;17.50;58.30
5868;DHT22;2960;49.142;7.768;2022-07-10T05:08:49;17.50;58.20
5868;DHT22;2960;49.142;7.768;2022-07-10T05:11:16;17.60;58.20
5868;DHT22;2960;49.142;7.768;2022-07-10T05:13:43;17.60;58.10
5868;DHT22;2960;49.142;7.768;2022-07-10T05:16:11;17.70;58.00
5868;DHT22;2960;49.142;7.768;2022-07-10T05:18:40;17.70;58.00
5868;DHT22;2960;49.142;7.768;2022-07-10T05:21:08;17.80;57.90
5868;DHT22;2960;49.142;7.768;2022-07-10T05:23:36;17.80;57.70
5868;DHT22;2960;49.142;7.768;2022-07-10T05:26:04;17.80;57.60
5868;DHT22;2960;49.142;7.768;2022-07-10T05:28:31;17.80;57.50
5868;DHT22;2960;49.142;7.768;2022-07-10T05:30:58;17.90;57.50
5868;DHT22;2960;49.142;7.768;2022-07-10T05:33:25;17.90;57.40
5868;DHT22;2960;49.142;7.768;2022-07-10T05:35:55;18.00;57.40
5868;DHT22;2960;49.142;7.768;2022-07-10T05:38:22;18.10;57.30
5868;DHT22;2960;49.142;7.768;2022-07-10T05:40:49;18.20;57.20
5868;DHT22;2960;49.142;7.768;2022-07-10T05:43:18;18.20;56.90
5868;DHT22;2960;49.142;7.768;2022-07-10T05:45:45;18.30;57.40
5868;DHT22;2960;49.142;7.768;2022-07-10T05:48:12;18.40;56.80
5868;DHT22;2960;49.142;7.768;2022-07-10T05:50:39;18.50;56.50
5868;DHT22;2960;49.142;7.768;2022-07-10T05:53:08;18.60;56.50
5868;DHT22;2960;49.142;7.768;2022-07-10T05:55:35;18.70;56.30
5868;DHT22;2960;49.142;7.768;2022-07-10T05:58:02;18.80;56.20
5868;DHT22;2960;49.142;7.768;2022-07-10T06:00:29;18.80;56.00
5868;DHT22;2960;49.142;7.768;2022-07-10T06:02:56;18.90;55.90
5868;DHT22;2960;49.142;7.768;2022-07-10T06:05:23;19.00;55.80
5868;DHT22;2960;49.142;7.768;2022-07-10T06:07:51;19.10;55.80
5868;DHT22;2960;49.142;7.768;2022-07-10T06:10:19;19.10;55.50
5868;DHT22;2960;49.142;7.768;2022-07-10T06:12:47;19.20;55.30
5868;DHT22;2960;49.142;7.768;2022-07-10T06:15:14;19.30;55.30
5868;DHT22;2960;49.142;7.768;2022-07-10T06:17:41;19.30;55.10
5868;DHT22;2960;49.142;7.768;2022-07-10T06:20:09;19.40;54.90
5868;DHT22;2960;49.142;7.768;2022-07-10T06:22:36;19.40;54.80
5868;DHT22;2960;49.142;7.768;2022-07-10T06:25:07;19.50;54.60
5868;DHT22;2960;49.142;7.768;2022-07-10T06:27:36;19.50;54.20
5868;DHT22;2960;49.142;7.768;2022-07-10T06:30:03;19.60;54.10
5868;DHT22;2960;49.142;7.768;2022-07-10T06:32:31;19.60;54.00
5868;DHT22;2960;49.142;7.768;2022-07-10T06:34:58;19.70;53.90
5868;DHT22;2960;49.142;7.768;2022-07-10T06:37:25;19.70;53.70
5868;DHT22;2960;49.142;7.768;2022-07-10T06:39:52;19.80;53.60
5868;DHT22;2960;49.142;7.768;2022-07-10T06:42:19;19.90;53.60
5868;DHT22;2960;49.142;7.768;2022-07-10T06:44:48;20.00;53.40
5868;DHT22;2960;49.142;7.768;2022-07-10T06:47:17;20.00;53.20
5868;DHT22;2960;49.142;7.768;2022-07-10T06:50:03;20.10;53.00
5868;DHT22;2960;49.142;7.768;2022-07-10T06:52:31;20.20;52.80
5868;DHT22;2960;49.142;7.768;2022-07-10T06:54:59;20.20;52.60
5868;DHT22;2960;49.142;7.768;2022-07-10T06:57:27;20.30;52.40
5868;DHT22;2960;49.142;7.768;2022-07-10T06:59:56;20.40;52.20
5868;DHT22;2960;49.142;7.768;2022-07-10T07:02:23;20.40;51.90
5868;DHT22;2960;49.142;7.768;2022-07-10T07:04:51;20.40;51.80
5868;DHT22;2960;49.142;7.768;2022-07-10T07:07:18;20.50;51.70
5868;DHT22;2960;49.142;7.768;2022-07-10T07:09:45;20.50;51.60
5868;DHT22;2960;49.142;7.768;2022-07-10T07:12:15;20.60;51.50
5868;DHT22;2960;49.142;7.768;2022-07-10T07:14:43;20.70;51.40
5868;DHT22;2960;49.142;7.768;2022-07-10T07:17:11;20.80;51.30
5868;DHT22;2960;49.142;7.768;2022-07-10T07:19:40;20.90;51.00
5868;DHT22;2960;49.142;7.768;2022-07-10T07:22:25;20.90;50.30
5868;DHT22;2960;49.142;7.768;2022-07-10T07:25:10;20.90;50.30
5868;DHT22;2960;49.142;7.768;2022-07-10T07:27:38;21.00;50.30
5868;DHT22;2960;49.142;7.768;2022-07-10T07:30:07;21.00;50.10
5868;DHT22;2960;49.142;7.768;2022-07-10T07:32:38;21.10;50.00
5868;DHT22;2960;49.142;7.768;2022-07-10T07:35:06;21.20;49.50
5868;DHT22;2960;49.142;7.768;2022-07-10T07:37:35;21.20;49.40
5868;DHT22;2960;49.142;7.768;2022-07-10T07:40:05;21.20;49.40
5868;DHT22;2960;49.142;7.768;2022-07-10T07:42:33;21.30;49.30
5868;DHT22;2960;49.142;7.768;2022-07-10T07:45:01;21.40;49.30
5868;DHT22;2960;49.142;7.768;2022-07-10T07:47:29;21.40;48.90
5868;DHT22;2960;49.142;7.768;2022-07-10T07:50:01;21.50;48.50
5868;DHT22;2960;49.142;7.768;2022-07-10T07:52:29;21.50;48.40
5868;DHT22;2960;49.142;7.768;2022-07-10T07:54:56;21.60;48.50
5868;DHT22;2960;49.142;7.768;2022-07-10T07:57:23;21.60;48.40
5868;DHT22;2960;49.142;7.768;2022-07-10T07:59:51;21.70;48.40
5868;DHT22;2960;49.142;7.768;2022-07-10T08:02:18;21.80;48.30
5868;DHT22;2960;49.142;7.768;2022-07-10T08:04:45;21.90;47.90
5868;DHT22;2960;49.142;7.768;2022-07-10T08:07:13;21.90;47.80
5868;DHT22;2960;49.142;7.768;2022-07-10T08:09:41;22.00;47.70
5868;DHT22;2960;49.142;7.768;2022-07-10T08:12:10;22.10;47.60
5868;DHT22;2960;49.142;7.768;2022-07-10T08:14:38;22.10;47.30
5868;DHT22;2960;49.142;7.768;2022-07-10T08:17:05;22.10;46.90
5868;DHT22;2960;49.142;7.768;2022-07-10T08:19:32;22.10;46.90
5868;DHT22;2960;49.142;7.768;2022-07-10T08:21:59;22.20;47.70
5868;DHT22;2960;49.142;7.768;2022-07-10T08:24:27;22.20;47.70
5868;DHT22;2960;49.142;7.768;2022-07-10T08:26:55;22.30;47.10
5868;DHT22;2960;49.142;7.768;2022-07-10T08:29:22;22.40;47.00
5868;DHT22;2960;49.142;7.768;2022-07-10T08:31:49;22.50;46.90
5868;DHT22;2960;49.142;7.768;2022-07-10T08:34:16;22.70;46.80
5868;DHT22;2960;49.142;7.768;2022-07-10T08:36:43;22.70;46.50
5868;DHT22;2960;49.142;7.768;2022-07-10T08:39:10;22.80;46.60
5868;DHT22;2960;49.142;7.768;2022-07-10T08:41:39;22.90;46.50
5868;DHT22;2960;49.142;7.768;2022-07-10T08:44:06;23.00;46.40
5868;DHT22;2960;49.142;7.768;2022-07-10T08:46:34;23.10;46.00
5868;DHT22;2960;49.142;7.768;2022-07-10T08:49:05;23.20;45.80
5868;DHT22;2960;49.142;7.768;2022-07-10T08:51:37;23.20;45.70
5868;DHT22;2960;49.142;7.768;2022-07-10T08:54:08;23.30;45.80
5868;DHT22;2960;49.142;7.768;2022-07-10T08:56:36;23.30;45.70
5868;DHT22;2960;49.142;7.768;2022-07-10T08:59:05;23.40;45.60
5868;DHT22;2960;49.142;7.768;2022-07-10T09:01:34;23.50;45.50
5868;DHT22;2960;49.142;7.768;2022-07-10T09:04:01;23.50;45.40
5868;DHT22;2960;49.142;7.768;2022-07-10T09:06:28;23.60;45.10
5868;DHT22;2960;49.142;7.768;2022-07-10T09:09:00;23.50;45.10
5868;DHT22;2960;49.142;7.768;2022-07-10T09:11:29;23.50;45.20
5868;DHT22;2960;49.142;7.768;2022-07-10T09:13:58;23.50;45.20
5868;DHT22;2960;49.142;7.768;2022-07-10T09:16:27;23.40;45.10
5868;DHT22;2960;49.142;7.768;2022-07-10T09:18:56;23.40;44.50
5868;DHT22;2960;49.142;7.768;2022-07-10T09:21:23;23.30;44.60
5868;DHT22;2960;49.142;7.768;2022-07-10T09:23:50;23.30;44.60
5868;DHT22;2960;49.142;7.768;2022-07-10T09:26:18;23.40;44.60
5868;DHT22;2960;49.142;7.768;2022-07-10T09:28:45;23.40;44.60
5868;DHT22;2960;49.142;7.768;2022-07-10T09:31:17;23.40;44.40
5868;DHT22;2960;49.142;7.768;2022-07-10T09:33:46;23.50;44.30
5868;DHT22;2960;49.142;7.768;2022-07-10T09:36:13;23.60;44.30
5868;DHT22;2960;49.142;7.768;2022-07-10T09:38:51;23.70;43.80
5868;DHT22;2960;49.142;7.768;2022-07-10T09:41:24;23.70;43.60
5868;DHT22;2960;49.142;7.768;2022-07-10T09:43:53;23.70;43.40
5868;DHT22;2960;49.142;7.768;2022-07-10T09:46:24;23.70;43.10
5868;DHT22;2960;49.142;7.768;2022-07-10T09:49:05;23.70;42.80
5868;DHT22;2960;49.142;7.768;2022-07-10T09:51:36;23.60;42.90
5868;DHT22;2960;49.142;7.768;2022-07-10T09:54:06;23.50;42.90
5868;DHT22;2960;49.142;7.768;2022-07-10T09:56:42;23.60;42.90
5868;DHT22;2960;49.142;7.768;2022-07-10T09:59:13;23.60;43.00
5868;DHT22;2960;49.142;7.768;2022-07-10T10:01:45;23.70;42.80
5868;DHT22;2960;49.142;7.768;2022-07-10T10:04:15;23.80;42.70
5868;DHT22;2960;49.142;7.768;2022-07-10T10:06:46;23.80;42.60
5868;DHT22;2960;49.142;7.768;2022-07-10T10:09:21;23.80;42.70
5868;DHT22;2960;49.142;7.768;2022-07-10T10:11:54;23.80;42.50
5868;DHT22;2960;49.142;7.768;2022-07-10T10:14:24;23.80;42.10
5868;DHT22;2960;49.142;7.768;2022-07-10T10:16:54;23.70;42.10
5868;DHT22;2960;49.142;7.768;2022-07-10T10:19:24;23.70;42.30
5868;DHT22;2960;49.142;7.768;2022-07-10T10:22:23;23.70;42.30
5868;DHT22;2960;49.142;7.768;2022-07-10T10:24:52;23.70;42.40
5868;DHT22;2960;49.142;7.768;2022-07-10T10:27:21;23.70;42.30
5868;DHT22;2960;49.142;7.768;2022-07-10T10:29:49;23.80;42.30
5868;DHT22;2960;49.142;7.768;2022-07-10T10:32:17;23.90;42.20
5868;DHT22;2960;49.142;7.768;2022-07-10T10:34:47;24.00;42.10
5868;DHT22;2960;49.142;7.768;2022-07-10T10:37:35;24.10;41.70
5868;DHT22;2960;49.142;7.768;2022-07-10T10:40:04;24.10;40.40
5868;DHT22;2960;49.142;7.768;2022-07-10T10:42:37;24.00;40.00
5868;DHT22;2960;49.142;7.768;2022-07-10T10:45:31;23.90;40.50
5868;DHT22;2960;49.142;7.768;2022-07-10T10:48:02;24.00;40.80
5868;DHT22;2960;49.142;7.768;2022-07-10T10:50:39;24.00;40.70
5868;DHT22;2960;49.142;7.768;2022-07-10T10:53:15;24.10;40.90
5868;DHT22;2960;49.142;7.768;2022-07-10T10:58:49;24.30;40.80
5868;DHT22;2960;49.142;7.768;2022-07-10T11:01:27;24.30;40.40
5868;DHT22;2960;49.142;7.768;2022-07-10T11:04:15;24.40;40.60
5868;DHT22;2960;49.142;7.768;2022-07-10T11:06:46;24.40;40.30
5868;DHT22;2960;49.142;7.768;2022-07-10T11:09:28;24.40;40.10
5868;DHT22;2960;49.142;7.768;2022-07-10T11:12:03;24.40;40.10
5868;DHT22;2960;49.142;7.768;2022-07-10T11:14:32;24.40;40.10
5868;DHT22;2960;49.142;7.768;2022-07-10T11:17:00;24.40;40.90
5868;DHT22;2960;49.142;7.768;2022-07-10T11:19:29;24.40;40.20
5868;DHT22;2960;49.142;7.768;2022-07-10T11:22:35;24.50;39.70
5868;DHT22;2960;49.142;7.768;2022-07-10T11:25:31;24.50;40.00
5868;DHT22;2960;49.142;7.768;2022-07-10T11:28:10;24.50;40.20
5868;DHT22;2960;49.142;7.768;2022-07-10T11:30:43;24.60;40.20
5868;DHT22;2960;49.142;7.768;2022-07-10T11:33:15;24.80;40.20
5868;DHT22;2960;49.142;7.768;2022-07-10T11:35:45;24.90;40.10
5868;DHT22;2960;49.142;7.768;2022-07-10T11:38:18;25.00;40.10
5868;DHT22;2960;49.142;7.768;2022-07-10T11:40:47;25.00;39.80
5868;DHT22;2960;49.142;7.768;2022-07-10T11:43:14;25.00;40.00
5868;DHT22;2960;49.142;7.768;2022-07-10T11:45:43;25.00;39.40
5868;DHT22;2960;49.142;7.768;2022-07-10T11:48:17;25.10;39.50
5868;DHT22;2960;49.142;7.768;2022-07-10T11:50:44;25.20;39.50
5868;DHT22;2960;49.142;7.768;2022-07-10T11:53:12;25.20;39.40
5868;DHT22;2960;49.142;7.768;2022-07-10T11:55:40;25.30;39.30
5868;DHT22;2960;49.142;7.768;2022-07-10T11:58:17;25.40;39.20
5868;DHT22;2960;49.142;7.768;2022-07-10T12:00:57;25.50;39.20
5868;DHT22;2960;49.142;7.768;2022-07-10T12:03:25;25.50;39.10
5868;DHT22;2960;49.142;7.768;2022-07-10T12:05:52;25.60;38.90
5868;DHT22;2960;49.142;7.768;2022-07-10T12:08:21;25.70;38.80
5868;DHT22;2960;49.142;7.768;2022-07-10T12:10:48;25.70;38.80
5868;DHT22;2960;49.142;7.768;2022-07-10T12:13:15;25.80;38.90
5868;DHT22;2960;49.142;7.768;2022-07-10T12:15:44;25.80;38.90
5868;DHT22;2960;49.142;7.768;2022-07-10T12:18:16;25.90;38.80
5868;DHT22;2960;49.142;7.768;2022-07-10T12:20:45;25.90;38.70
5868;DHT22;2960;49.142;7.768;2022-07-10T12:23:14;25.90;38.70
5868;DHT22;2960;49.142;7.768;2022-07-10T12:25:45;25.90;38.80
5868;DHT22;2960;49.142;7.768;2022-07-10T12:28:14;26.00;38.80
5868;DHT22;2960;49.142;7.768;2022-07-10T12:30:42;26.00;38.70
5868;DHT22;2960;49.142;7.768;2022-07-10T12:33:11;26.10;38.60
5868;DHT22;2960;49.142;7.768;2022-07-10T12:35:49;26.00;38.50
5868;DHT22;2960;49.142;7.768;2022-07-10T12:38:19;26.10;38.40
5868;DHT22;2960;49.142;7.768;2022-07-10T12:40:48;25.90;38.20
5868;DHT22;2960;49.142;7.768;2022-07-10T12:43:25;25.80;37.40
5868;DHT22;2960;49.142;7.768;2022-07-10T12:46:10;25.60;37.10
5868;DHT22;2960;49.142;7.768;2022-07-10T12:48:41;25.40;37.50
5868;DHT22;2960;49.142;7.768;2022-07-10T12:51:21;25.30;37.60
5868;DHT22;2960;49.142;7.768;2022-07-10T12:53:49;25.20;38.00
5868;DHT22;2960;49.142;7.768;2022-07-10T12:56:32;25.20;38.00
5868;DHT22;2960;49.142;7.768;2022-07-10T12:59:02;25.30;38.20
5868;DHT22;2960;49.142;7.768;2022-07-10T13:01:40;25.30;38.70
5868;DHT22;2960;49.142;7.768;2022-07-10T13:04:08;25.40;38.00
5868;DHT22;2960;49.142;7.768;2022-07-10T13:06:36;25.40;38.20
5868;DHT22;2960;49.142;7.768;2022-07-10T13:09:18;25.40;38.90
5868;DHT22;2960;49.142;7.768;2022-07-10T13:11:49;25.50;38.30
5868;DHT22;2960;49.142;7.768;2022-07-10T13:14:16;25.60;38.30
5868;DHT22;2960;49.142;7.768;2022-07-10T13:16:43;25.70;38.30
5868;DHT22;2960;49.142;7.768;2022-07-10T13:19:10;25.80;38.20
5868;DHT22;2960;49.142;7.768;2022-07-10T13:21:38;25.80;38.10
5868;DHT22;2960;49.142;7.768;2022-07-10T13:24:05;25.90;38.10
5868;DHT22;2960;49.142;7.768;2022-07-10T13:26:33;25.90;37.80
5868;DHT22;2960;49.142;7.768;2022-07-10T13:29:01;25.90;38.00
5868;DHT22;2960;49.142;7.768;2022-07-10T13:31:29;26.00;37.90
5868;DHT22;2960;49.142;7.768;2022-07-10T13:33:56;26.00;38.00
5868;DHT22;2960;49.142;7.768;2022-07-10T13:36:23;26.00;38.00
5868;DHT22;2960;49.142;7.768;2022-07-10T13:38:50;26.10;38.00
5868;DHT22;2960;49.142;7.768;2022-07-10T13:41:18;26.10;38.00
5868;DHT22;2960;49.142;7.768;2022-07-10T13:43:45;26.20;38.00
5868;DHT22;2960;49.142;7.768;2022-07-10T13:46:14;26.20;37.70
5868;DHT22;2960;49.142;7.768;2022-07-10T13:48:41;26.20;37.80
5868;DHT22;2960;49.142;7.768;2022-07-10T13:51:08;26.10;38.00
5868;DHT22;2960;49.142;7.768;2022-07-10T13:53:35;26.10;38.20
5868;DHT22;2960;49.142;7.768;2022-07-10T13:56:05;26.10;38.90
5868;DHT22;2960;49.142;7.768;2022-07-10T13:58:35;26.10;38.20
5868;DHT22;2960;49.142;7.768;2022-07-10T14:01:03;26.10;38.30
5868;DHT22;2960;49.142;7.768;2022-07-10T14:03:32;26.10;38.30
5868;DHT22;2960;49.142;7.768;2022-07-10T14:05:59;26.10;38.30
5868;DHT22;2960;49.142;7.768;2022-07-10T14:08:26;26.10;38.40
5868;DHT22;2960;49.142;7.768;2022-07-10T14:10:53;26.10;38.50
5868;DHT22;2960;49.142;7.768;2022-07-10T14:13:20;26.10;38.50
5868;DHT22;2960;49.142;7.768;2022-07-10T14:15:47;26.10;38.50
5868;DHT22;2960;49.142;7.768;2022-07-10T14:18:15;26.10;38.50
5868;DHT22;2960;49.142;7.768;2022-07-10T14:21:01;26.10;38.50
5868;DHT22;2960;49.142;7.768;2022-07-10T14:23:34;26.00;38.30
5868;DHT22;2960;49.142;7.768;2022-07-10T14:26:03;25.90;38.40
5868;DHT22;2960;49.142;7.768;2022-07-10T14:28:31;25.90;38.50
5868;DHT22;2960;49.142;7.768;2022-07-10T14:31:00;25.80;38.60
5868;DHT22;2960;49.142;7.768;2022-07-10T14:33:29;25.80;38.70
5868;DHT22;2960;49.142;7.768;2022-07-10T14:35:57;25.70;38.70
5868;DHT22;2960;49.142;7.768;2022-07-10T14:38:25;25.70;38.70
5868;DHT22;2960;49.142;7.768;2022-07-10T14:40:54;25.70;38.80
5868;DHT22;2960;49.142;7.768;2022-07-10T14:43:21;25.70;38.90
5868;DHT22;2960;49.142;7.768;2022-07-10T14:45:49;25.70;39.00
5868;DHT22;2960;49.142;7.768;2022-07-10T14:48:17;25.60;39.00
5868;DHT22;2960;49.142;7.768;2022-07-10T14:50:44;25.60;39.00
5868;DHT22;2960;49.142;7.768;2022-07-10T14:53:11;25.60;39.10
5868;DHT22;2960;49.142;7.768;2022-07-10T14:55:39;25.60;39.10
5868;DHT22;2960;49.142;7.768;2022-07-10T14:58:06;25.50;39.20
5868;DHT22;2960;49.142;7.768;2022-07-10T15:00:34;25.50;39.30
5868;DHT22;2960;49.142;7.768;2022-07-10T15:03:01;25.50;39.30
5868;DHT22;2960;49.142;7.768;2022-07-10T15:05:28;25.40;39.20
5868;DHT22;2960;49.142;7.768;2022-07-10T15:07:56;25.40;39.80
5868;DHT22;2960;49.142;7.768;2022-07-10T15:10:23;25.40;39.30
5868;DHT22;2960;49.142;7.768;2022-07-10T15:12:51;25.40;39.40
5868;DHT22;2960;49.142;7.768;2022-07-10T15:15:18;25.30;39.40
5868;DHT22;2960;49.142;7.768;2022-07-10T15:17:46;25.30;39.50
5868;DHT22;2960;49.142;7.768;2022-07-10T15:20:13;25.30;39.40
5868;DHT22;2960;49.142;7.768;2022-07-10T15:22:40;25.20;39.40
5868;DHT22;2960;49.142;7.768;2022-07-10T15:25:08;25.20;39.40
5868;DHT22;2960;49.142;7.768;2022-07-10T15:27:35;25.20;39.50
5868;DHT22;2960;49.142;7.768;2022-07-10T15:30:05;25.20;39.70
5868;DHT22;2960;49.142;7.768;2022-07-10T15:32:34;25.10;39.70
5868;DHT22;2960;49.142;7.768;2022-07-10T15:35:01;25.10;39.70
5868;DHT22;2960;49.142;7.768;2022-07-10T15:37:28;25.00;39.80
5868;DHT22;2960;49.142;7.768;2022-07-10T15:39:55;25.00;40.00
5868;DHT22;2960;49.142;7.768;2022-07-10T15:42:22;25.00;40.00
5868;DHT22;2960;49.142;7.768;2022-07-10T15:44:50;25.00;40.00
5868;DHT22;2960;49.142;7.768;2022-07-10T15:47:18;24.90;40.10
5868;DHT22;2960;49.142;7.768;2022-07-10T15:49:45;24.90;40.20
5868;DHT22;2960;49.142;7.768;2022-07-10T15:52:12;24.90;40.20
5868;DHT22;2960;49.142;7.768;2022-07-10T15:54:39;24.90;40.30
5868;DHT22;2960;49.142;7.768;2022-07-10T15:57:07;24.90;40.30
5868;DHT22;2960;49.142;7.768;2022-07-10T15:59:34;24.90;40.30
5868;DHT22;2960;49.142;7.768;2022-07-10T16:02:02;24.90;40.30
5868;DHT22;2960;49.142;7.768;2022-07-10T16:04:31;24.90;40.40
5868;DHT22;2960;49.142;7.768;2022-07-10T16:06:58;24.80;40.30
5868;DHT22;2960;49.142;7.768;2022-07-10T16:09:25;24.90;40.40
5868;DHT22;2960;49.142;7.768;2022-07-10T16:11:52;24.80;40.30
5868;DHT22;2960;49.142;7.768;2022-07-10T16:14:19;24.80;40.40
5868;DHT22;2960;49.142;7.768;2022-07-10T16:16:46;24.80;40.40